NEWS:


Yeovilton

ADDS - METARS form results

Output produced by METARs form (1048 UTC 17 June 2019)
found at http://www.aviationweather.gov/metar/data/
 
METAR text: EGDY 171020Z 20012KT 9999 FEW018 BKN040 16/12 Q1017 NOSIG RMK BLU BLU
Conditions at: EGDY (YEOVILTON (NAVY), GB) observed 1020 UTC 17 June 2019
Temperature: 16.0°C (61°F)
Dewpoint: 12.0°C (54°F) [RH = 77%]
Pressure (altimeter): 30.03 inches Hg (1017.0 mb)
Winds: from the SSW (200 degrees) at 14 MPH (12 knots; 6.2 m/s)
Visibility: 6 or more miles (10+ km)
Ceiling: 4000 feet AGL
Clouds: few clouds at 1800 feet AGL
broken clouds at 4000 feet AGL
Weather: no significant weather observed at this time

METAR text: EGDY 170950Z 20012KT 9999 FEW018 BKN040 16/12 Q1017 TEMPO 7000 -SHRA SCT015 RMK BLU TEMPO WHT
Conditions at: EGDY (YEOVILTON (NAVY), GB) observed 0950 UTC 17 June 2019
Temperature: 16.0°C (61°F)
Dewpoint: 12.0°C (54°F) [RH = 77%]
Pressure (altimeter): 30.03 inches Hg (1017.0 mb)
Winds: from the SSW (200 degrees) at 14 MPH (12 knots; 6.2 m/s)
Visibility: 6 or more miles (10+ km)
Ceiling: 4000 feet AGL
Clouds: few clouds at 1800 feet AGL
broken clouds at 4000 feet AGL
Weather: no significant weather observed at this time

Forecast for: EGDY (YEOVILTON (NAVY), GB)
Text: TAF EGDY 170731Z 1709/1718 20010KT 9999 FEW016 BKN030
Forecast period: 0900 to 1800 UTC 17 June 2019
Forecast type: FROM: standard forecast or significant change
Winds: from the SSW (200 degrees) at 12 MPH (10 knots; 5.1 m/s)
Visibility: 6 or more miles 10+ km)
Ceiling: 3000 feet AGL
Clouds: few clouds at 1600 feet AGL
broken clouds at 3000 feet AGL
Weather: no significant weather forecast for this period
Text: PROB30
Forecast period: 0900 to 1200 UTC 17 June 2019
Forecast type: TEMPORARY: The following changes expected for less than half the time period
Winds: from the SSW (200 degrees) at 17 MPH (15 knots; 7.7 m/s)
gusting to 29 MPH (25 knots; 12.9 m/s)
Visibility: 4 miles (7 km)
Ceiling: at least 12,000 feet AGL
Clouds: scattered clouds at 1500 feet AGL
Weather: -SHRA  (light rain showers)


Bournemouth

ADDS - METARS form results

Output produced by METARs form (1048 UTC 17 June 2019)
found at http://www.aviationweather.gov/metar/data/
 
METAR text: EGHH 171020Z 22011KT 9999 FEW018 BKN039 17/11 Q1018
Conditions at: EGHH (BOURNEMOUTH AIRP, GB) observed 1020 UTC 17 June 2019
Temperature: 17.0°C (63°F)
Dewpoint: 11.0°C (52°F) [RH = 68%]
Pressure (altimeter): 30.06 inches Hg (1018.0 mb)
Winds: from the SW (220 degrees) at 13 MPH (11 knots; 5.7 m/s)
Visibility: 6 or more miles (10+ km)
Ceiling: 3900 feet AGL
Clouds: few clouds at 1800 feet AGL
broken clouds at 3900 feet AGL
Weather: no significant weather observed at this time

METAR text: EGHH 170950Z 22011KT 9999 SCT018 BKN039 17/12 Q1018
Conditions at: EGHH (BOURNEMOUTH AIRP, GB) observed 0950 UTC 17 June 2019
Temperature: 17.0°C (63°F)
Dewpoint: 12.0°C (54°F) [RH = 72%]
Pressure (altimeter): 30.06 inches Hg (1018.0 mb)
Winds: from the SW (220 degrees) at 13 MPH (11 knots; 5.7 m/s)
Visibility: 6 or more miles (10+ km)
Ceiling: 3900 feet AGL
Clouds: scattered clouds at 1800 feet AGL
broken clouds at 3900 feet AGL
Weather: no significant weather observed at this time

Forecast for: EGHH (BOURNEMOUTH AIRP, GB)
Text: TAF EGHH 170758Z 1709/1718 22014KT 9999 SCT035
Forecast period: 0900 to 1800 UTC 17 June 2019
Forecast type: FROM: standard forecast or significant change
Winds: from the SW (220 degrees) at 16 MPH (14 knots; 7.2 m/s)
Visibility: 6 or more miles 10+ km)
Ceiling: at least 12,000 feet AGL
Clouds: scattered clouds at 3500 feet AGL
Weather: no significant weather forecast for this period


Boscombe

ADDS - METARS form results

Output produced by METARs form (1048 UTC 17 June 2019)
found at http://www.aviationweather.gov/metar/data/
 
METAR text: EGDM 170950Z 20011KT 9999 FEW017 BKN030 15/11 Q1018 NOSIG RMK BLU BLU
Conditions at: EGDM (BOSCOMBE DOWN , GB) observed 0950 UTC 17 June 2019
Temperature: 15.0°C (59°F)
Dewpoint: 11.0°C (52°F) [RH = 77%]
Pressure (altimeter): 30.06 inches Hg (1018.0 mb)
Winds: from the SSW (200 degrees) at 13 MPH (11 knots; 5.7 m/s)
Visibility: 6 or more miles (10+ km)
Ceiling: 3000 feet AGL
Clouds: few clouds at 1700 feet AGL
broken clouds at 3000 feet AGL
Weather: no significant weather observed at this time

Forecast for: EGDM (BOSCOMBE DOWN , GB)
Text: TAF EGDM 171040Z 1712/1718 21012KT 9999 SCT035
Forecast period: 1200 to 1800 UTC 17 June 2019
Forecast type: FROM: standard forecast or significant change
Winds: from the SSW (210 degrees) at 14 MPH (12 knots; 6.2 m/s)
Visibility: 6 or more miles 10+ km)
Ceiling: at least 12,000 feet AGL
Clouds: scattered clouds at 3500 feet AGL
Weather: no significant weather forecast for this period


Bristol

ADDS - METARS form results

Output produced by METARs form (1048 UTC 17 June 2019)
found at http://www.aviationweather.gov/metar/data/
 
METAR text: EGGD 171020Z AUTO 20011KT 9999 SCT018 BKN035 16/11 Q1017
Conditions at: EGGD (BRISTOL/LULSGATE, GB) observed 1020 UTC 17 June 2019
Temperature: 16.0°C (61°F)
Dewpoint: 11.0°C (52°F) [RH = 72%]
Pressure (altimeter): 30.03 inches Hg (1017.0 mb)
Winds: from the SSW (200 degrees) at 13 MPH (11 knots; 5.7 m/s)
Visibility: 6 or more miles (10+ km)
Ceiling: 3500 feet AGL
Clouds: scattered clouds at 1800 feet AGL
broken clouds at 3500 feet AGL
Weather: no significant weather observed at this time

METAR text: EGGD 170950Z AUTO 20011KT 160V230 9999 BKN018 BKN033 16/11 Q1017
Conditions at: EGGD (BRISTOL/LULSGATE, GB) observed 0950 UTC 17 June 2019
Temperature: 16.0°C (61°F)
Dewpoint: 11.0°C (52°F) [RH = 72%]
Pressure (altimeter): 30.03 inches Hg (1017.0 mb)
Winds: from the SSW (200 degrees) at 13 MPH (11 knots; 5.7 m/s)
Visibility: 6 or more miles (10+ km)
Ceiling: 1800 feet AGL
Clouds: broken clouds at 1800 feet AGL
broken clouds at 3300 feet AGL
Weather: no significant weather observed at this time

Forecast for: EGGD (BRISTOL/LULSGATE, GB)
Text: TAF EGGD 170501Z 1706/1806 20012KT 9999 FEW009
Forecast period: 0600 UTC 17 June 2019 to 0000 UTC 18 June 2019
Forecast type: FROM: standard forecast or significant change
Winds: from the SSW (200 degrees) at 14 MPH (12 knots; 6.2 m/s)
Visibility: 6 or more miles 10+ km)
Ceiling: at least 12,000 feet AGL
Clouds: few clouds at 900 feet AGL
Weather: no significant weather forecast for this period
Text: TEMPO 1706/1709 9000 -RADZ BKN009
Forecast period: 0600 to 0900 UTC 17 June 2019
Forecast type: TEMPORARY: The following changes expected for less than half the time period
Visibility: 6 miles (9 km)
Ceiling: 900 feet AGL
Clouds: broken clouds at 900 feet AGL
Weather: -RA -DZ  (light rain, light drizzle)
Text: PROB30
Forecast period: 1600 UTC 17 June 2019 to 0000 UTC 18 June 2019
Forecast type: TEMPORARY: The following changes expected for less than half the time period
Visibility: 5 miles (8 km)
Ceiling: 1300 feet AGL
Clouds: broken clouds at 1300 feet AGL
Weather: -SHRA -RA -DZ  (light rain showers, light rain, light drizzle)
Text: TEMPO 1716/1724 8000 -SHRA -RADZ BKN013
Forecast period: 0000 to 0600 UTC 18 June 2019
Forecast type: BECOMING: Conditions expected to become as follows by 0300 UTC 18 June 2019
Winds: variable direction winds at 3 MPH (3 knots; 1.5 m/s)
Visibility: 6 or more miles 10+ km)
Ceiling: at least 12,000 feet AGL
Clouds: few clouds at 900 feet AGL
Weather: no significant weather forecast for this period
Text: BECMG 1800/1803 VRB03KT
Forecast period: 0000 to 0600 UTC 18 June 2019
Forecast type: TEMPORARY: The following changes expected for less than half the time period
Visibility: 4 miles (6 km)
Ceiling: unknown
Clouds: missing
Weather: no significant weather forecast for this period
Text: TEMPO 1800/1806 6000
Forecast period: 0200 to 0500 UTC 18 June 2019
Forecast type: TEMPORARY: The following changes expected for less than half the time period
Visibility: 1.55 miles (2.49 km)
Ceiling: 200 feet AGL
Clouds: broken clouds at 200 feet AGL
Weather: BR  (mist)






Experience Flights